Time;durP1;ratioP1;P1;durP2;ratioP2;P2;SDS_P1;SDS_P2;PMS_P1;PMS_P2;Temp;Humidity;BMP_temperature;BMP_pressure;BME280_temperature;BME280_humidity;BME280_pressure;Samples;Min_cycle;Max_cycle;Signal;HPM_P1;HPM_P2
2022/07/27 00:00:53;;;;;;;1.42;0.98;;;21.90;56.20;;;;;;5012678;28;20539;-73
2022/07/27 00:03:22;;;;;;;1.50;1.00;;;21.80;60.90;;;;;;5011569;28;20052;-74
2022/07/27 00:05:48;;;;;;;2.78;1.02;;;21.90;56.20;;;;;;5012270;28;20140;-74
2022/07/27 00:08:15;;;;;;;1.55;0.80;;;21.90;56.10;;;;;;5012501;28;20403;-74
2022/07/27 00:10:43;;;;;;;2.28;1.10;;;21.90;56.10;;;;;;5012351;28;20081;-74
2022/07/27 00:13:10;;;;;;;1.83;1.05;;;21.80;56.00;;;;;;5011194;28;20441;-74
2022/07/27 00:15:37;;;;;;;2.55;1.17;;;22.30;60.10;;;;;;5012265;28;20140;-74
2022/07/27 00:18:04;;;;;;;2.95;1.00;;;21.80;56.00;;;;;;5012223;28;20130;-74
2022/07/27 00:20:31;;;;;;;1.95;0.93;;;21.80;56.00;;;;;;5012379;28;20141;-74
2022/07/27 00:22:57;;;;;;;1.45;0.90;;;21.50;60.10;;;;;;5011380;28;20418;-74
2022/07/27 00:25:25;;;;;;;1.83;0.90;;;21.80;55.90;;;;;;5011276;28;20057;-74
2022/07/27 00:27:53;;;;;;;3.67;1.58;;;21.70;55.90;;;;;;5011699;28;20511;-73
2022/07/27 00:30:20;;;;;;;2.75;1.00;;;21.70;55.80;;;;;;5011847;28;20077;-73
2022/07/27 00:32:47;;;;;;;2.53;1.10;;;21.70;55.70;;;;;;5011460;28;20062;-74
2022/07/27 00:35:14;;;;;;;1.55;0.98;;;21.90;60.60;;;;;;5011906;28;20148;-74
2022/07/27 00:37:41;;;;;;;1.33;0.90;;;21.70;55.80;;;;;;5011893;28;20505;-74
2022/07/27 00:40:09;;;;;;;1.73;1.00;;;21.70;55.80;;;;;;5011614;28;20132;-74
2022/07/27 00:42:35;;;;;;;1.85;0.93;;;21.70;55.70;;;;;;5011825;28;20065;-74
2022/07/27 00:45:03;;;;;;;3.55;1.05;;;23.00;60.70;;;;;;5011525;28;20060;-74
2022/07/27 00:47:30;;;;;;;2.83;1.20;;;21.60;60.60;;;;;;5010907;28;20046;-74
2022/07/27 00:49:57;;;;;;;1.40;1.00;;;21.60;55.60;;;;;;5011453;28;20060;-74
2022/07/27 00:52:24;;;;;;;2.47;0.90;;;21.60;55.60;;;;;;5011562;28;20446;-74
2022/07/27 00:54:50;;;;;;;2.67;1.10;;;21.80;60.80;;;;;;5012030;28;20052;-74
2022/07/27 00:57:17;;;;;;;4.13;1.10;;;21.60;55.60;;;;;;5011299;28;20133;-74
2022/07/27 00:59:44;;;;;;;1.85;0.80;;;21.60;55.50;;;;;;5011527;28;20567;-74
2022/07/27 01:02:12;;;;;;;1.90;1.08;;;20.80;59.80;;;;;;5027873;28;20068;-74
2022/07/27 01:04:39;;;;;;;5.88;1.20;;;21.60;55.40;;;;;;5011012;28;20077;-74
2022/07/27 01:07:06;;;;;;;1.73;1.00;;;22.10;58.90;;;;;;5011120;28;20394;-74
2022/07/27 01:12:18;;;;;;;1.95;1.13;;;21.60;59.30;;;;;;5011389;28;20197;-74
2022/07/27 01:14:44;;;;;;;2.05;0.95;;;21.50;55.30;;;;;;5010933;28;20049;-74
2022/07/27 01:17:13;;;;;;;1.50;0.95;;;21.70;60.50;;;;;;5011170;28;20136;-74
2022/07/27 01:19:39;;;;;;;3.67;1.23;;;21.40;61.10;;;;;;5010990;28;20078;-74
2022/07/27 01:22:07;;;;;;;3.25;1.13;;;21.70;58.60;;;;;;5011209;28;20518;-74
2022/07/27 01:24:34;;;;;;;2.60;1.10;;;21.50;55.40;;;;;;5010667;28;20116;-74
2022/07/27 01:27:01;;;;;;;1.02;0.85;;;21.50;55.30;;;;;;5010829;28;20081;-74
2022/07/27 01:29:28;;;;;;;0.95;0.80;;;21.50;55.40;;;;;;5010994;28;20069;-74
2022/07/27 01:31:55;;;;;;;2.75;1.15;;;21.50;58.30;;;;;;5010850;28;20050;-74
2022/07/27 01:34:22;;;;;;;4.03;1.10;;;21.40;59.30;;;;;;5010788;28;20096;-74
2022/07/27 01:36:49;;;;;;;1.83;0.90;;;21.40;55.30;;;;;;5011087;28;20056;-74
2022/07/27 01:39:18;;;;;;;0.95;0.85;;;21.50;60.00;;;;;;5011070;28;20060;-74
2022/07/27 01:41:45;;;;;;;1.00;0.90;;;21.40;55.40;;;;;;5010880;28;20068;-74
2022/07/27 01:44:12;;;;;;;1.50;0.80;;;21.40;59.40;;;;;;5010285;28;20410;-74
2022/07/27 01:46:38;;;;;;;2.72;1.10;;;21.40;55.50;;;;;;5010686;28;20056;-74
2022/07/27 01:49:05;;;;;;;2.13;1.08;;;21.40;55.50;;;;;;5012023;28;20068;-74
2022/07/27 01:51:32;;;;;;;2.22;1.10;;;21.40;55.50;;;;;;5010903;28;20058;-74
2022/07/27 01:53:59;;;;;;;2.75;1.10;;;21.40;55.50;;;;;;5010390;28;20085;-73
2022/07/27 01:56:27;;;;;;;1.67;1.00;;;21.40;55.50;;;;;;5010722;28;20133;-74
2022/07/27 01:58:54;;;;;;;4.95;0.88;;;21.40;55.50;;;;;;5010707;28;20077;-74
2022/07/27 02:01:21;;;;;;;3.40;1.02;;;21.40;55.60;;;;;;5010606;28;20054;-74
2022/07/27 02:03:47;;;;;;;1.85;1.02;;;21.40;55.60;;;;;;5010337;28;20061;-74
2022/07/27 02:06:14;;;;;;;4.45;1.40;;;21.40;55.60;;;;;;5010860;28;20061;-74
2022/07/27 02:08:41;;;;;;;2.60;1.00;;;21.30;61.00;;;;;;5010418;28;20050;-74
2022/07/27 02:13:53;;;;;;;3.13;1.30;;;21.30;55.70;;;;;;5011401;28;20418;-74
2022/07/27 02:16:20;;;;;;;1.48;0.93;;;21.30;55.70;;;;;;5010696;28;20137;-74
2022/07/27 02:18:47;;;;;;;1.45;1.00;;;21.20;59.80;;;;;;5010888;28;20076;-74
2022/07/27 02:21:13;;;;;;;2.08;1.02;;;21.30;60.50;;;;;;5010396;28;20060;-74
2022/07/27 02:23:41;;;;;;;3.78;1.10;;;21.30;55.70;;;;;;5010158;28;20510;-74
2022/07/27 02:26:08;;;;;;;1.38;0.90;;;21.50;55.80;;;;;;5010315;28;20505;-74
2022/07/27 02:28:35;;;;;;;2.55;1.23;;;21.30;55.70;;;;;;5010174;28;20138;-74
2022/07/27 02:31:03;;;;;;;1.70;0.93;;;21.30;55.70;;;;;;5010377;28;20109;-74
2022/07/27 02:33:30;;;;;;;3.17;1.17;;;21.30;55.60;;;;;;5010061;28;20133;-73
2022/07/27 02:35:56;;;;;;;2.47;1.38;;;21.30;55.60;;;;;;5011711;28;20491;-74
2022/07/27 02:38:24;;;;;;;2.53;1.08;;;21.30;59.60;;;;;;5014026;28;20076;-74
2022/07/27 02:40:51;;;;;;;2.75;1.20;;;21.30;55.60;;;;;;5014058;28;20096;-74
2022/07/27 02:43:17;;;;;;;3.17;1.17;;;21.10;59.90;;;;;;5013744;28;20480;-74
2022/07/27 02:45:44;;;;;;;2.67;1.10;;;21.20;55.60;;;;;;5013668;28;20050;-74
2022/07/27 02:48:12;;;;;;;1.90;0.90;;;21.20;55.50;;;;;;5013642;28;20133;-74
2022/07/27 02:50:39;;;;;;;1.83;0.90;;;21.20;55.50;;;;;;5013868;28;20144;-74
2022/07/27 02:53:08;;;;;;;5.57;1.30;;;21.40;59.70;;;;;;5013345;28;20056;-74
2022/07/27 02:55:34;;;;;;;3.42;1.05;;;21.20;55.40;;;;;;5013217;28;20057;-74
2022/07/27 02:58:01;;;;;;;2.15;1.05;;;21.20;55.30;;;;;;5013757;28;20550;-74
2022/07/27 03:00:28;;;;;;;1.77;1.00;;;21.30;59.80;;;;;;5013877;28;20519;-74
2022/07/27 03:02:55;;;;;;;2.30;1.17;;;21.20;55.40;;;;;;5012946;28;20086;-74
2022/07/27 03:05:23;;;;;;;2.58;1.17;;;21.20;55.30;;;;;;5014211;28;20125;-74
2022/07/27 03:07:49;;;;;;;1.27;0.75;;;21.10;55.20;;;;;;5013454;28;20096;-74
2022/07/27 03:10:16;;;;;;;3.25;1.00;;;21.10;55.20;;;;;;5014554;28;20117;-74
2022/07/27 03:12:43;;;;;;;3.35;1.20;;;21.10;55.10;;;;;;5013395;28;20054;-74
2022/07/27 03:15:11;;;;;;;2.08;1.10;;;21.10;55.10;;;;;;5029523;28;20089;-74
2022/07/27 03:17:37;;;;;;;1.92;1.10;;;21.10;55.10;;;;;;5013090;28;20559;-74
2022/07/27 03:20:05;;;;;;;2.38;1.23;;;21.00;59.60;;;;;;5013026;28;20064;-74
2022/07/27 03:22:33;;;;;;;2.40;1.00;;;21.10;55.10;;;;;;5013015;28;20053;-74
2022/07/27 03:25:00;;;;;;;1.60;1.00;;;21.10;55.00;;;;;;5012747;28;20522;-74
2022/07/27 03:27:27;;;;;;;2.92;1.13;;;20.20;58.70;;;;;;5013031;28;20050;-74
2022/07/27 03:29:54;;;;;;;1.63;0.77;;;21.00;54.90;;;;;;5012963;28;20057;-74
2022/07/27 03:32:21;;;;;;;2.70;1.10;;;21.80;60.00;;;;;;5012796;28;20058;-74
2022/07/27 03:34:48;;;;;;;2.30;1.20;;;21.00;54.90;;;;;;5012503;28;20049;-74
2022/07/27 03:37:15;;;;;;;2.20;1.15;;;21.00;54.80;;;;;;5012989;28;20108;-74
2022/07/27 03:39:43;;;;;;;2.08;1.00;;;21.00;54.80;;;;;;5012960;28;20058;-74
2022/07/27 03:42:11;;;;;;;3.15;1.20;;;21.20;58.90;;;;;;5013058;28;20410;-74
2022/07/27 03:44:38;;;;;;;1.45;0.90;;;19.90;60.00;;;;;;5012259;28;20137;-74
2022/07/27 03:47:04;;;;;;;1.55;0.98;;;21.00;54.80;;;;;;5011399;28;20057;-74
2022/07/27 03:49:31;;;;;;;2.60;1.00;;;21.00;58.90;;;;;;5013729;28;20132;-73
2022/07/27 03:51:58;;;;;;;1.92;1.00;;;20.90;58.20;;;;;;5013702;28;20057;-73
2022/07/27 03:54:25;;;;;;;2.22;1.05;;;20.90;54.70;;;;;;5012513;28;20410;-74
2022/07/27 03:56:53;;;;;;;2.15;0.85;;;20.90;54.70;;;;;;5012660;28;20107;-74
2022/07/27 03:59:20;;;;;;;2.30;1.17;;;21.00;59.20;;;;;;5012720;28;20136;-74
2022/07/27 04:01:46;;;;;;;2.78;1.10;;;20.90;54.70;;;;;;5013747;28;20050;-73
2022/07/27 04:04:13;;;;;;;2.25;1.00;;;21.10;60.40;;;;;;5012667;28;20048;-74
2022/07/27 04:06:40;;;;;;;3.85;1.23;;;20.80;59.70;;;;;;5012666;28;20060;-73
2022/07/27 04:09:07;;;;;;;2.03;1.00;;;20.90;54.90;;;;;;5013524;28;20046;-73
2022/07/27 04:11:33;;;;;;;2.63;1.00;;;20.90;54.90;;;;;;5012875;28;20046;-74
2022/07/27 04:14:02;;;;;;;4.47;0.98;;;20.80;59.50;;;;;;5011998;28;20064;-74
2022/07/27 04:16:28;;;;;;;2.65;1.00;;;21.20;60.40;;;;;;5012374;28;20140;-75
2022/07/27 04:18:55;;;;;;;2.25;1.02;;;19.50;54.30;;;;;;5012118;28;20133;-77
2022/07/27 04:21:22;;;;;;;2.75;1.23;;;20.80;55.00;;;;;;5027108;28;20468;-79
2022/07/27 04:23:49;;;;;;;3.67;1.25;;;20.60;60.00;;;;;;5011196;28;20065;-75
2022/07/27 04:26:15;;;;;;;1.88;0.95;;;20.80;55.00;;;;;;5012062;28;20472;-76
2022/07/27 04:28:42;;;;;;;1.45;0.90;;;20.80;55.00;;;;;;5011723;28;20050;-75
2022/07/27 04:31:10;;;;;;;2.03;1.05;;;20.60;60.00;;;;;;5011753;28;20092;-75
2022/07/27 04:33:37;;;;;;;2.40;1.10;;;21.90;60.70;;;;;;5011819;28;20173;-75
2022/07/27 04:36:04;;;;;;;4.45;1.55;;;20.70;55.10;;;;;;5011800;28;20132;-75
2022/07/27 04:38:31;;;;;;;1.55;1.00;;;20.60;59.50;;;;;;5012244;28;20542;-73
2022/07/27 04:40:57;;;;;;;2.58;0.93;;;20.80;55.20;;;;;;5011990;28;20054;-74
2022/07/27 04:43:24;;;;;;;1.98;1.00;;;20.80;55.20;;;;;;5012536;28;20128;-75
2022/07/27 04:45:51;;;;;;;2.92;1.00;;;20.80;55.20;;;;;;5011487;28;20062;-75
2022/07/27 04:48:19;;;;;;;2.47;1.00;;;20.70;55.20;;;;;;5011624;28;20050;-75
2022/07/27 04:50:46;;;;;;;4.50;1.10;;;20.70;55.20;;;;;;5011876;28;20061;-74
2022/07/27 04:53:13;;;;;;;1.50;1.10;;;20.70;59.90;;;;;;5012570;28;20057;-74
2022/07/27 04:55:41;;;;;;;1.45;1.00;;;20.70;55.20;;;;;;5011490;28;20474;-74
2022/07/27 04:58:08;;;;;;;2.88;1.10;;;20.70;55.20;;;;;;5011012;28;20411;-73
2022/07/27 05:00:35;;;;;;;3.47;1.42;;;20.80;55.30;;;;;;5011583;28;20060;-74
2022/07/27 05:03:01;;;;;;;2.38;1.10;;;20.70;59.70;;;;;;5010961;28;20081;-74
2022/07/27 05:05:29;;;;;;;2.45;1.00;;;20.70;55.30;;;;;;5011253;28;20136;-72
2022/07/27 05:07:56;;;;;;;4.70;1.20;;;20.80;55.40;;;;;;5011941;28;20125;-72
2022/07/27 05:10:24;;;;;;;2.10;1.10;;;20.70;55.30;;;;;;5011418;28;20422;-73
2022/07/27 05:12:51;;;;;;;2.42;1.00;;;20.70;55.90;;;;;;4992603;28;20057;-73
2022/07/27 05:15:17;;;;;;;2.28;1.05;;;20.70;55.40;;;;;;5003402;28;20060;-73
2022/07/27 05:17:44;;;;;;;2.42;1.10;;;20.70;55.40;;;;;;5012281;28;20046;-73
2022/07/27 05:20:11;;;;;;;2.15;1.10;;;20.80;55.50;;;;;;5011279;28;20509;-73
2022/07/27 05:22:39;;;;;;;1.75;0.98;;;20.60;60.20;;;;;;5011113;28;20575;-72
2022/07/27 05:25:07;;;;;;;3.17;1.20;;;21.00;60.50;;;;;;5010350;28;20054;-73
2022/07/27 05:27:34;;;;;;;2.40;1.10;;;20.80;56.20;;;;;;5011120;28;20089;-73
2022/07/27 05:30:01;;;;;;;4.97;1.05;;;20.80;55.60;;;;;;5010850;28;20049;-73
2022/07/27 05:32:28;;;;;;;4.40;1.10;;;20.80;55.70;;;;;;5010833;28;20454;-74
2022/07/27 05:34:55;;;;;;;5.28;1.20;;;20.80;61.50;;;;;;5011376;28;20046;-73
2022/07/27 05:37:22;;;;;;;5.28;1.38;;;20.80;55.70;;;;;;5010879;28;20185;-73
2022/07/27 05:39:50;;;;;;;6.90;1.20;;;20.90;60.50;;;;;;5011780;28;20522;-73
2022/07/27 05:42:16;;;;;;;3.05;1.27;;;20.60;60.50;;;;;;5011070;28;20090;-73
2022/07/27 05:44:43;;;;;;;3.58;1.20;;;20.80;56.00;;;;;;5010344;28;20136;-73
2022/07/27 05:47:10;;;;;;;3.35;1.10;;;20.80;56.00;;;;;;5010783;28;20570;-74
2022/07/27 05:49:37;;;;;;;7.00;1.20;;;20.80;60.10;;;;;;5010557;28;20056;-73
2022/07/27 05:52:03;;;;;;;9.15;1.40;;;20.80;59.60;;;;;;5012097;28;20088;-73
2022/07/27 05:54:30;;;;;;;3.13;1.25;;;21.00;61.00;;;;;;5010305;28;20487;-73
2022/07/27 05:56:58;;;;;;;4.35;1.50;;;20.90;56.10;;;;;;5010801;28;20132;-73
2022/07/27 05:59:25;;;;;;;6.35;1.30;;;21.70;61.10;;;;;;5010636;28;20050;-74
2022/07/27 06:01:52;;;;;;;2.22;1.20;;;20.90;56.20;;;;;;5011028;28;20064;-73
2022/07/27 06:04:18;;;;;;;5.05;1.33;;;20.90;56.20;;;;;;5010375;28;20058;-73
2022/07/27 06:09:29;;;;;;;2.22;1.15;;;20.90;56.20;;;;;;5026728;28;20130;-73
2022/07/27 06:11:57;;;;;;;3.58;1.23;;;20.90;59.80;;;;;;5013887;28;20667;-73
2022/07/27 06:14:24;;;;;;;2.95;1.23;;;20.80;56.10;;;;;;5014081;28;20070;-73
2022/07/27 06:16:51;;;;;;;9.40;1.50;;;20.90;56.20;;;;;;5013219;28;20137;-72
2022/07/27 06:19:17;;;;;;;2.58;1.25;;;20.90;56.20;;;;;;5014277;28;20137;-72
2022/07/27 06:21:44;;;;;;;5.05;1.17;;;20.90;61.90;;;;;;5013316;28;20418;-72
2022/07/27 06:24:11;;;;;;;3.42;1.23;;;20.90;56.20;;;;;;5013775;28;20237;-74
2022/07/27 06:26:38;;;;;;;3.38;1.23;;;20.80;60.30;;;;;;5014144;28;20054;-74
2022/07/27 06:29:06;;;;;;;8.20;1.35;;;20.70;61.80;;;;;;5014172;28;20129;-74
2022/07/27 06:31:32;;;;;;;5.88;1.10;;;20.70;61.30;;;;;;5014125;28;20062;-74
2022/07/27 06:33:59;;;;;;;4.72;1.55;;;20.90;56.20;;;;;;5013816;28;20054;-73
2022/07/27 06:36:26;;;;;;;5.85;1.20;;;21.00;61.40;;;;;;5013861;28;20562;-74
2022/07/27 06:38:53;;;;;;;5.53;1.23;;;21.70;61.80;;;;;;5014137;28;20133;-73
2022/07/27 06:41:20;;;;;;;5.25;1.75;;;20.90;56.30;;;;;;5014244;28;20491;-74
2022/07/27 06:43:47;;;;;;;3.83;1.20;;;20.90;56.40;;;;;;5013444;28;20053;-74
2022/07/27 06:46:15;;;;;;;3.63;1.00;;;20.90;56.30;;;;;;5013856;28;20398;-72
2022/07/27 06:48:42;;;;;;;5.13;1.30;;;20.90;56.30;;;;;;5013703;28;20054;-75
2022/07/27 06:51:09;;;;;;;2.97;1.23;;;21.20;61.00;;;;;;5013939;28;20059;-75
2022/07/27 06:53:36;;;;;;;3.67;1.30;;;21.00;56.30;;;;;;5013001;28;20061;-74
2022/07/27 06:56:03;;;;;;;6.68;1.88;;;21.00;56.30;;;;;;5013520;28;20061;-75
2022/07/27 06:58:31;;;;;;;6.65;2.22;;;20.90;61.20;;;;;;5013530;28;20056;-74
2022/07/27 07:00:58;;;;;;;4.30;1.30;;;21.00;56.20;;;;;;5013624;28;20054;-75
2022/07/27 07:03:26;;;;;;;4.43;1.40;;;21.10;56.20;;;;;;5012941;28;20104;-74
2022/07/27 07:05:53;;;;;;;4.43;1.40;;;21.10;56.10;;;;;;5013444;28;20057;-75
2022/07/27 07:08:21;;;;;;;3.70;1.27;;;21.20;61.80;;;;;;5013834;28;20054;-73
2022/07/27 07:10:48;;;;;;;3.25;1.33;;;21.20;56.10;;;;;;5014241;28;20102;-74
2022/07/27 07:13:16;;;;;;;3.20;1.30;;;21.20;56.00;;;;;;5013856;28;20445;-74
2022/07/27 07:15:43;;;;;;;2.45;1.35;;;21.30;61.40;;;;;;5014464;28;20061;-74
2022/07/27 07:18:10;;;;;;;2.85;1.52;;;21.40;60.30;;;;;;5014247;28;20046;-74
2022/07/27 07:20:38;;;;;;;4.72;1.50;;;21.40;55.80;;;;;;5012771;28;20084;-74
2022/07/27 07:23:05;;;;;;;5.78;1.50;;;21.50;55.70;;;;;;5012678;28;20058;-74
2022/07/27 07:25:32;;;;;;;4.32;1.35;;;22.50;61.10;;;;;;5029409;28;20514;-73
2022/07/27 07:27:59;;;;;;;6.38;1.42;;;21.60;55.60;;;;;;5013032;28;20064;-73
2022/07/27 07:30:26;;;;;;;4.75;1.40;;;21.60;60.50;;;;;;5014047;28;20045;-73
2022/07/27 07:32:53;;;;;;;6.35;1.52;;;21.70;55.40;;;;;;5012473;28;20133;-73
2022/07/27 07:35:19;;;;;;;6.60;2.33;;;22.00;55.40;;;;;;5012975;28;20137;-73
2022/07/27 07:37:47;;;;;;;5.25;1.67;;;22.00;60.30;;;;;;5012953;28;20136;-73
2022/07/27 07:40:14;;;;;;;5.82;1.92;;;22.00;59.90;;;;;;5013803;28;20046;-73
2022/07/27 07:42:52;;;;;;;4.82;1.50;;;22.20;55.10;;;;;;5012533;28;20271;-72
2022/07/27 07:45:19;;;;;;;3.05;1.50;;;22.30;55.00;;;;;;4993607;28;20058;-72
2022/07/27 07:47:46;;;;;;;3.72;1.30;;;22.40;54.80;;;;;;4993204;28;20060;-72
2022/07/27 07:50:13;;;;;;;3.22;1.52;;;22.40;54.60;;;;;;4992796;28;20078;-72
2022/07/27 07:52:40;;;;;;;3.30;1.60;;;22.50;54.50;;;;;;4977106;28;20046;-72
2022/07/27 07:55:09;;;;;;;4.35;1.70;;;22.90;59.50;;;;;;5012278;28;20491;-72
2022/07/27 07:57:35;;;;;;;3.47;1.30;;;22.70;54.30;;;;;;5012684;28;20058;-72
2022/07/27 08:00:02;;;;;;;5.10;1.90;;;22.70;54.10;;;;;;5012120;28;20132;-73
2022/07/27 08:02:29;;;;;;;2.50;1.25;;;22.80;59.40;;;;;;5012579;28;20137;-73
2022/07/27 08:04:56;;;;;;;3.65;1.45;;;22.80;53.90;;;;;;5011493;28;20149;-73
2022/07/27 08:07:23;;;;;;;2.83;1.20;;;22.90;53.80;;;;;;5012373;28;20060;-73
2022/07/27 08:09:49;;;;;;;4.55;1.20;;;23.10;59.20;;;;;;5012194;28;20056;-73
2022/07/27 08:12:17;;;;;;;2.90;1.30;;;23.00;58.40;;;;;;5012273;28;20056;-73
2022/07/27 08:14:44;;;;;;;2.72;1.20;;;23.00;53.30;;;;;;5012235;28;20410;-73
2022/07/27 08:17:12;;;;;;;3.85;1.40;;;23.10;53.20;;;;;;5012323;28;20140;-73
2022/07/27 08:19:39;;;;;;;3.15;1.60;;;23.20;53.10;;;;;;5012144;28;20050;-74
2022/07/27 08:22:06;;;;;;;4.18;1.42;;;23.00;56.00;;;;;;5011266;28;20130;-73
2022/07/27 08:24:33;;;;;;;5.88;2.10;;;23.30;53.10;;;;;;5011894;28;20133;-73
2022/07/27 08:27:01;;;;;;;7.35;1.90;;;23.80;57.90;;;;;;5012137;28;20080;-73
2022/07/27 08:29:29;;;;;;;5.32;1.98;;;23.30;57.70;;;;;;5011628;28;20125;-73
2022/07/27 08:31:56;;;;;;;5.72;1.80;;;23.40;55.70;;;;;;5011452;28;20527;-73
2022/07/27 08:34:23;;;;;;;3.47;1.83;;;23.50;52.80;;;;;;5011120;28;20160;-74
2022/07/27 08:36:50;;;;;;;7.80;2.13;;;23.50;52.70;;;;;;5012107;28;20480;-74
2022/07/27 08:39:17;;;;;;;5.53;2.08;;;23.60;52.70;;;;;;5011574;28;20042;-75
2022/07/27 08:41:44;;;;;;;4.28;1.50;;;23.60;52.60;;;;;;5011136;28;20064;-74
2022/07/27 08:44:11;;;;;;;4.97;1.90;;;23.40;57.70;;;;;;5027603;28;20129;-74
2022/07/27 08:46:39;;;;;;;6.43;1.42;;;23.60;52.60;;;;;;5011378;28;20141;-73
2022/07/27 08:49:07;;;;;;;6.82;2.13;;;23.60;57.10;;;;;;5009984;28;20389;-74
2022/07/27 08:51:33;;;;;;;5.68;1.65;;;23.50;52.30;;;;;;5011321;28;20145;-74
2022/07/27 08:54:00;;;;;;;9.05;1.98;;;23.50;52.30;;;;;;5010963;28;20411;-74
2022/07/27 08:56:27;;;;;;;6.30;2.03;;;23.40;52.20;;;;;;5011513;28;20064;-74
2022/07/27 08:58:54;;;;;;;11.43;1.88;;;23.30;52.20;;;;;;5011399;28;20470;-74
2022/07/27 09:01:20;;;;;;;8.80;1.83;;;23.30;52.30;;;;;;5011092;28;20057;-73
2022/07/27 09:03:49;;;;;;;10.00;1.90;;;23.20;52.40;;;;;;5010983;28;20085;-73
2022/07/27 09:06:31;;;;;;;10.50;1.90;;;23.20;52.60;;;;;;5011178;28;20434;-73
2022/07/27 09:08:58;;;;;;;6.25;1.92;;;23.00;52.60;;;;;;5011257;28;20133;-73
2022/07/27 09:11:25;;;;;;;4.38;1.80;;;23.00;57.10;;;;;;5010744;28;20060;-74
2022/07/27 09:13:51;;;;;;;4.60;1.77;;;23.00;52.90;;;;;;5011673;28;20634;-74
2022/07/27 09:16:28;;;;;;;12.88;2.15;;;22.60;57.50;;;;;;5010849;28;20054;-73
2022/07/27 09:19:00;;;;;;;22.63;2.13;;;21.90;56.30;;;;;;5012300;28;20136;-73
2022/07/27 09:21:27;;;;;;;13.73;1.73;;;22.80;53.00;;;;;;5008594;28;20417;-73
2022/07/27 09:23:54;;;;;;;7.93;2.10;;;22.70;57.60;;;;;;5009029;28;20123;-73
2022/07/27 09:26:22;;;;;;;21.40;3.03;;;22.70;53.10;;;;;;5010480;28;20049;-73
2022/07/27 09:28:53;;;;;;;27.65;4.95;;;22.80;58.80;;;;;;5010593;28;20068;-72
2022/07/27 09:31:20;;;;;;;28.25;4.70;;;22.60;52.90;;;;;;5009926;28;20495;-74
2022/07/27 09:33:48;;;;;;;19.35;4.15;;;22.60;52.90;;;;;;5012332;28;20133;-73
2022/07/27 09:36:17;;;;;;;22.67;4.05;;;22.50;52.80;;;;;;5010235;28;20046;-73
2022/07/27 09:38:51;;;;;;;27.60;3.70;;;22.50;52.70;;;;;;5010604;28;20136;-74
2022/07/27 09:41:18;;;;;;;12.68;3.22;;;22.50;52.80;;;;;;5008775;28;20125;-73
2022/07/27 09:43:46;;;;;;;9.63;2.53;;;22.50;52.90;;;;;;5009661;28;20755;-73
2022/07/27 09:46:13;;;;;;;9.52;2.60;;;22.50;52.70;;;;;;5012580;28;20455;-73
2022/07/27 09:48:39;;;;;;;9.10;2.50;;;22.50;52.60;;;;;;5025989;28;20046;-73
2022/07/27 09:51:07;;;;;;;10.25;2.00;;;22.30;56.60;;;;;;5034703;28;20045;-73
2022/07/27 09:53:35;;;;;;;15.80;2.28;;;22.50;52.60;;;;;;5034518;28;20065;-73
2022/07/27 09:56:05;;;;;;;6.88;2.30;;;21.60;56.40;;;;;;5019136;28;20056;-73
2022/07/27 09:58:40;;;;;;;6.20;2.13;;;22.60;52.60;;;;;;5014638;28;20132;-73
2022/07/27 10:01:07;;;;;;;5.90;1.90;;;23.50;57.70;;;;;;5015053;28;20046;-73
2022/07/27 10:03:33;;;;;;;8.90;2.05;;;22.60;52.60;;;;;;5014181;28;20053;-73
2022/07/27 10:06:00;;;;;;;7.03;2.10;;;22.60;52.50;;;;;;5015644;28;20059;-74
2022/07/27 10:08:27;;;;;;;13.95;2.58;;;22.70;52.50;;;;;;5014073;28;20050;-73
2022/07/27 10:10:56;;;;;;;10.65;2.00;;;22.70;52.50;;;;;;5014309;28;20120;-73
2022/07/27 10:13:24;;;;;;;4.47;2.10;;;22.70;52.40;;;;;;5015275;28;20380;-73
2022/07/27 10:15:50;;;;;;;4.55;1.80;;;22.80;52.60;;;;;;5015428;28;20057;-74
2022/07/27 10:18:19;;;;;;;9.27;1.98;;;21.90;56.30;;;;;;5014452;28;20053;-74
2022/07/27 10:20:46;;;;;;;4.60;1.90;;;22.80;52.40;;;;;;5033084;28;20055;-73
2022/07/27 10:23:25;;;;;;;10.50;2.20;;;22.80;52.20;;;;;;5033884;28;20061;-74
2022/07/27 10:26:19;;;;;;;8.85;2.13;;;22.60;57.90;;;;;;5033774;28;20056;-73
2022/07/27 10:28:53;;;;;;;9.00;4.07;;;22.80;56.90;;;;;;5033854;28;20559;-72
2022/07/27 10:31:21;;;;;;;21.83;7.57;;;22.90;54.00;;;;;;5028769;28;20053;-73
2022/07/27 10:33:49;;;;;;;40.08;18.55;;;22.90;56.50;;;;;;5017526;28;20053;-72
2022/07/27 10:36:17;;;;;;;40.35;16.90;;;22.80;51.70;;;;;;5013964;28;20077;-73
2022/07/27 10:38:47;;;;;;;14.15;7.20;;;22.80;51.60;;;;;;5014107;28;20067;-73
2022/07/27 10:41:26;;;;;;;16.70;6.47;;;23.20;51.40;;;;;;5013552;28;20756;-73
2022/07/27 10:44:26;;;;;;;11.88;6.45;;;22.80;50.80;;;;;;5017033;28;20136;-73
2022/07/27 10:46:54;;;;;;;9.65;4.65;;;22.80;51.30;;;;;;5033569;28;20067;-73
2022/07/27 10:49:22;;;;;;;8.98;4.63;;;22.80;50.80;;;;;;5026284;28;20089;-73
2022/07/27 10:51:49;;;;;;;10.77;3.45;;;22.80;50.70;;;;;;5012117;28;20108;-73
2022/07/27 10:54:22;;;;;;;7.47;3.45;;;22.80;50.60;;;;;;5013390;28;20133;-73
2022/07/27 10:56:50;;;;;;;5.50;2.55;;;23.70;56.40;;;;;;5013395;28;20065;-73
2022/07/27 10:59:51;;;;;;;8.00;3.08;;;22.70;50.20;;;;;;5015032;28;20046;-73
2022/07/27 11:02:18;;;;;;;5.57;2.72;;;22.80;50.30;;;;;;4937764;29;20508;-73
2022/07/27 11:04:48;;;;;;;3.60;2.20;;;22.70;50.30;;;;;;4935964;29;20480;-73
2022/07/27 11:07:16;;;;;;;7.57;2.95;;;22.90;54.90;;;;;;4968332;28;20046;-74
2022/07/27 11:09:43;;;;;;;7.18;2.78;;;22.60;55.80;;;;;;5008334;28;20071;-74
2022/07/27 11:12:11;;;;;;;8.75;2.13;;;22.70;53.60;;;;;;5010470;28;20050;-73
2022/07/27 11:14:48;;;;;;;4.15;1.83;;;22.70;50.50;;;;;;5013922;28;20058;-73
2022/07/27 11:17:15;;;;;;;6.85;2.40;;;22.80;55.50;;;;;;5011628;28;20054;-73
2022/07/27 11:19:42;;;;;;;4.55;2.00;;;23.00;50.60;;;;;;5013174;28;20144;-73
2022/07/27 11:22:08;;;;;;;5.20;1.67;;;22.10;52.90;;;;;;5013144;28;20145;-73
2022/07/27 11:24:35;;;;;;;3.95;1.77;;;22.80;54.80;;;;;;5012829;28;20065;-73
2022/07/27 11:27:02;;;;;;;3.95;1.85;;;22.70;50.10;;;;;;5016656;28;20045;-73
2022/07/27 11:29:33;;;;;;;3.97;1.50;;;22.80;50.20;;;;;;5032670;28;20103;-73
2022/07/27 11:32:00;;;;;;;3.60;1.40;;;22.80;53.60;;;;;;5032832;28;20080;-73
2022/07/27 11:34:27;;;;;;;4.90;1.70;;;22.80;50.10;;;;;;5032532;28;20494;-73
2022/07/27 11:36:55;;;;;;;2.67;1.25;;;22.60;49.70;;;;;;5032875;28;20065;-74
2022/07/27 11:39:24;;;;;;;3.00;1.27;;;22.80;49.70;;;;;;5032631;28;20088;-73
2022/07/27 11:41:53;;;;;;;3.00;1.42;;;22.80;49.50;;;;;;5033372;28;20491;-73
2022/07/27 11:44:20;;;;;;;2.70;1.27;;;22.80;49.60;;;;;;5017463;28;20060;-73
2022/07/27 11:46:49;;;;;;;5.00;1.45;;;22.80;49.60;;;;;;5013466;28;20056;-73
2022/07/27 11:49:17;;;;;;;3.78;1.55;;;22.90;54.30;;;;;;5012836;28;20481;-73
2022/07/27 11:51:44;;;;;;;6.15;1.60;;;22.80;49.50;;;;;;5013359;28;20244;-73
2022/07/27 11:54:12;;;;;;;2.45;1.20;;;22.80;49.60;;;;;;5012134;28;20084;-72
2022/07/27 11:56:42;;;;;;;4.53;1.17;;;23.10;49.90;;;;;;5012643;28;20140;-73
2022/07/27 11:59:13;;;;;;;3.95;1.20;;;22.80;49.70;;;;;;5022250;28;20057;-72
2022/07/27 12:01:42;;;;;;;3.58;1.20;;;22.80;49.60;;;;;;5014799;28;20058;-73
2022/07/27 12:04:13;;;;;;;2.97;1.13;;;22.80;55.50;;;;;;5010968;28;20073;-70
2022/07/27 12:06:40;;;;;;;3.83;1.20;;;22.80;49.50;;;;;;5010062;28;20414;-71
2022/07/27 12:09:08;;;;;;;3.15;1.45;;;22.90;49.50;;;;;;5011830;28;20136;-71
2022/07/27 12:11:57;;;;;;;3.95;1.20;;;22.90;49.60;;;;;;5011977;28;20415;-71
2022/07/27 12:14:38;;;;;;;3.85;1.30;;;22.90;49.70;;;;;;5032088;28;20061;-71
2022/07/27 12:17:09;;;;;;;3.90;1.20;;;22.90;49.80;;;;;;5031916;28;20140;-71
2022/07/27 12:19:37;;;;;;;2.08;1.15;;;22.90;49.90;;;;;;5031964;28;20089;-71
2022/07/27 12:22:04;;;;;;;3.58;1.38;;;22.50;53.20;;;;;;5031551;28;20073;-71
2022/07/27 12:24:35;;;;;;;4.63;1.20;;;22.80;54.20;;;;;;5031103;28;20550;-71
2022/07/27 12:27:07;;;;;;;4.65;1.33;;;22.90;49.50;;;;;;5013561;28;20100;-70
2022/07/27 12:29:49;;;;;;;4.65;2.00;;;22.90;49.80;;;;;;5011378;28;20555;-70
2022/07/27 12:32:16;;;;;;;5.78;2.40;;;22.90;49.80;;;;;;5027402;28;20128;-71
2022/07/27 12:34:44;;;;;;;5.88;3.55;;;22.90;49.80;;;;;;5012446;28;20074;-70
2022/07/27 12:37:11;;;;;;;4.45;3.20;;;22.90;49.70;;;;;;5011445;28;20057;-70
2022/07/27 12:39:38;;;;;;;5.00;3.10;;;23.00;49.80;;;;;;5011298;28;20057;-72
2022/07/27 12:42:06;;;;;;;6.25;3.10;;;22.20;52.50;;;;;;5024883;28;20049;-72
2022/07/27 12:44:33;;;;;;;5.53;3.10;;;22.90;50.00;;;;;;5031108;28;20132;-72
2022/07/27 12:47:00;;;;;;;8.10;2.60;;;22.70;54.10;;;;;;5030971;28;20050;-72
2022/07/27 12:49:33;;;;;;;8.30;2.15;;;22.90;50.10;;;;;;5031343;28;20384;-72
2022/07/27 12:52:08;;;;;;;4.90;2.50;;;23.00;53.10;;;;;;5032219;28;20068;-73
2022/07/27 12:54:35;;;;;;;8.00;2.42;;;20.60;49.00;;;;;;5031068;28;20063;-73
2022/07/27 12:57:01;;;;;;;5.32;2.35;;;22.80;54.60;;;;;;5016791;28;20050;-73